Time;durP1;ratioP1;P1;durP2;ratioP2;P2;SDS_P1;SDS_P2;PMS_P1;PMS_P2;Temp;Humidity;BMP_temperature;BMP_pressure;BME280_temperature;BME280_humidity;BME280_pressure;Samples;Min_cycle;Max_cycle;Signal;HPM_P1;HPM_P2
2022/09/11 00:00:46;;;;;;;19.43;18.43;;;16.60;87.40;;;;;;4986415;28;20462;-73
2022/09/11 00:03:13;;;;;;;19.27;18.27;;;16.60;87.20;;;;;;4985414;28;21121;-73
2022/09/11 00:05:42;;;;;;;18.90;18.07;;;16.60;87.30;;;;;;4991222;28;20511;-71
2022/09/11 00:08:11;;;;;;;18.93;17.80;;;16.70;87.30;;;;;;4984966;28;20461;-70
2022/09/11 00:10:40;;;;;;;18.90;18.10;;;16.70;87.30;;;;;;4987465;28;20466;-70
2022/09/11 00:13:07;;;;;;;19.10;18.10;;;16.60;87.40;;;;;;4991573;28;20482;-71
2022/09/11 00:15:38;;;;;;;19.80;18.80;;;16.60;87.30;;;;;;4990503;28;20466;-71
2022/09/11 00:18:06;;;;;;;19.33;18.53;;;16.60;87.50;;;;;;4979406;28;20478;-71
2022/09/11 00:20:33;;;;;;;19.30;18.37;;;16.70;87.10;;;;;;4989691;28;20470;-71
2022/09/11 00:23:03;;;;;;;19.27;18.43;;;16.60;87.10;;;;;;4984689;28;20488;-70
2022/09/11 00:25:32;;;;;;;18.77;17.97;;;16.60;87.40;;;;;;4985485;28;20982;-71
2022/09/11 00:27:59;;;;;;;19.07;18.27;;;16.70;87.00;;;;;;4987986;28;20461;-71
2022/09/11 00:30:26;;;;;;;19.33;18.40;;;16.80;86.90;;;;;;4988636;28;20470;-70
2022/09/11 00:32:54;;;;;;;19.40;18.50;;;16.80;86.70;;;;;;4992625;28;20487;-70
2022/09/11 00:35:22;;;;;;;19.03;18.20;;;16.70;86.90;;;;;;4986625;28;20831;-70
2022/09/11 00:37:49;;;;;;;19.57;18.57;;;16.70;87.00;;;;;;4982866;28;20998;-70
2022/09/11 00:40:17;;;;;;;19.43;18.50;;;16.70;86.80;;;;;;4987062;28;20484;-70
2022/09/11 00:42:44;;;;;;;19.50;18.60;;;16.70;86.80;;;;;;4989010;28;21026;-71
2022/09/11 00:45:21;;;;;;;19.40;18.40;;;16.70;86.80;;;;;;4996351;28;20457;-71
2022/09/11 00:47:50;;;;;;;19.03;18.23;;;16.70;86.60;;;;;;4987992;28;20464;-71
2022/09/11 00:50:22;;;;;;;19.60;18.60;;;16.70;86.60;;;;;;4994298;28;20465;-71
2022/09/11 00:52:53;;;;;;;19.73;18.83;;;16.60;86.80;;;;;;4989253;28;20490;-72
2022/09/11 00:55:25;;;;;;;18.87;17.97;;;16.70;86.60;;;;;;5002100;28;20462;-71
2022/09/11 00:57:57;;;;;;;19.43;18.23;;;16.70;86.70;;;;;;4987101;28;20488;-74
2022/09/11 01:00:24;;;;;;;19.57;18.57;;;16.70;86.60;;;;;;4999907;28;20460;-72
2022/09/11 01:02:54;;;;;;;20.10;19.07;;;16.70;86.60;;;;;;4990363;28;20513;-73
2022/09/11 01:05:24;;;;;;;19.70;18.80;;;16.70;86.80;;;;;;4992277;28;20456;-72
2022/09/11 01:07:53;;;;;;;19.27;18.37;;;16.70;87.00;;;;;;4990732;28;20450;-73
2022/09/11 01:10:24;;;;;;;19.20;18.40;;;16.70;87.00;;;;;;4998246;28;20994;-73
2022/09/11 01:13:00;;;;;;;18.70;17.70;;;16.70;87.10;;;;;;4988189;28;20500;-73
2022/09/11 01:15:35;;;;;;;19.00;18.20;;;16.80;87.30;;;;;;4986280;28;20457;-72
2022/09/11 01:18:06;;;;;;;19.00;18.07;;;16.70;87.40;;;;;;4987681;28;20473;-74
2022/09/11 01:20:46;;;;;;;18.97;18.07;;;16.70;87.50;;;;;;4979943;28;20549;-73
2022/09/11 01:23:36;;;;;;;19.23;18.27;;;16.70;87.50;;;;;;4988223;28;20473;-72
2022/09/11 01:26:31;;;;;;;18.77;17.80;;;16.80;87.40;;;;;;4988473;28;20460;-71
2022/09/11 01:29:05;;;;;;;18.57;17.77;;;16.80;87.20;;;;;;4984775;28;20457;-71
2022/09/11 01:31:41;;;;;;;18.87;17.97;;;16.70;87.60;;;;;;4992100;28;20467;-70
2022/09/11 01:34:15;;;;;;;19.07;17.77;;;16.70;87.60;;;;;;4989784;28;20627;-73
2022/09/11 01:36:46;;;;;;;18.93;18.03;;;16.70;87.90;;;;;;5000678;28;20463;-73
2022/09/11 01:39:16;;;;;;;19.00;18.10;;;16.70;88.00;;;;;;4995375;28;20482;-73
2022/09/11 01:41:48;;;;;;;19.13;18.13;;;16.70;87.90;;;;;;4997563;28;20489;-70
2022/09/11 01:44:20;;;;;;;19.07;18.17;;;16.70;88.00;;;;;;4990632;28;20510;-71
2022/09/11 01:46:50;;;;;;;19.30;18.40;;;16.60;88.30;;;;;;4986299;28;20488;-71
2022/09/11 01:49:43;;;;;;;19.33;18.43;;;16.60;88.40;;;;;;4986682;28;20460;-70
2022/09/11 01:52:15;;;;;;;19.57;18.67;;;16.60;88.50;;;;;;4994609;28;20534;-70
2022/09/11 01:54:46;;;;;;;18.70;17.90;;;16.60;88.60;;;;;;4989497;28;20465;-71
2022/09/11 01:57:26;;;;;;;19.03;18.23;;;16.50;88.50;;;;;;4990446;28;20493;-71
2022/09/11 01:59:59;;;;;;;19.10;18.20;;;16.50;88.50;;;;;;4986332;28;20532;-72
2022/09/11 02:02:33;;;;;;;18.67;17.77;;;16.50;88.70;;;;;;4987459;28;20584;-73
2022/09/11 02:05:04;;;;;;;18.20;17.33;;;16.50;88.50;;;;;;4991187;28;20458;-73
2022/09/11 02:07:36;;;;;;;18.57;17.67;;;16.50;88.50;;;;;;4983048;28;20461;-74
2022/09/11 02:10:08;;;;;;;19.03;18.13;;;16.50;88.50;;;;;;4988349;28;20476;-70
2022/09/11 02:12:41;;;;;;;19.07;18.17;;;16.40;89.10;;;;;;4986507;28;20584;-71
2022/09/11 02:15:14;;;;;;;18.10;17.30;;;16.30;89.50;;;;;;4989305;28;20950;-71
2022/09/11 02:17:49;;;;;;;18.67;17.73;;;16.30;89.40;;;;;;4990205;28;20469;-71
2022/09/11 02:20:16;;;;;;;18.40;17.50;;;16.40;89.20;;;;;;4990231;28;20557;-71
2022/09/11 02:22:43;;;;;;;18.37;17.37;;;16.40;88.90;;;;;;4988820;28;20495;-71
2022/09/11 02:25:12;;;;;;;18.40;17.60;;;16.40;89.10;;;;;;4989084;28;20467;-71
2022/09/11 02:27:40;;;;;;;19.20;18.40;;;16.40;89.00;;;;;;4989173;28;20951;-72
2022/09/11 02:30:08;;;;;;;18.20;17.30;;;16.30;89.20;;;;;;4986860;28;20470;-71
2022/09/11 02:32:37;;;;;;;17.40;16.63;;;16.30;89.30;;;;;;4989460;28;20491;-72
2022/09/11 02:35:06;;;;;;;18.63;17.73;;;16.30;89.20;;;;;;4986049;28;20468;-71
2022/09/11 02:37:47;;;;;;;17.63;16.80;;;16.30;89.40;;;;;;4987015;28;21451;-71
2022/09/11 02:40:36;;;;;;;18.17;17.47;;;16.40;89.40;;;;;;4987769;28;21081;-71
2022/09/11 02:43:24;;;;;;;17.50;16.60;;;16.40;89.40;;;;;;4983500;28;20938;-70
2022/09/11 02:46:06;;;;;;;17.87;16.77;;;16.40;89.40;;;;;;4987081;28;20464;-70
2022/09/11 02:48:45;;;;;;;17.60;16.53;;;16.50;89.00;;;;;;4985917;28;20461;-70
2022/09/11 02:51:21;;;;;;;17.50;16.70;;;16.50;89.00;;;;;;4990504;28;20464;-71
2022/09/11 02:53:57;;;;;;;16.40;15.70;;;16.60;88.60;;;;;;4984022;28;20472;-70
2022/09/11 02:56:30;;;;;;;17.80;16.50;;;16.60;88.60;;;;;;4989936;28;20469;-71
2022/09/11 02:59:01;;;;;;;17.47;16.50;;;16.60;88.60;;;;;;4985695;28;20485;-71
2022/09/11 03:01:28;;;;;;;17.80;17.00;;;16.60;88.50;;;;;;4990888;28;20462;-70
2022/09/11 03:03:56;;;;;;;18.90;17.90;;;16.60;88.40;;;;;;4985063;28;20461;-71
2022/09/11 03:06:26;;;;;;;20.40;19.47;;;16.60;88.70;;;;;;4989511;28;20919;-74
2022/09/11 03:08:53;;;;;;;17.33;16.53;;;16.60;88.70;;;;;;4987153;28;20450;-73
2022/09/11 03:11:19;;;;;;;17.67;16.87;;;16.60;88.50;;;;;;4994679;28;20457;-72
2022/09/11 03:13:46;;;;;;;22.80;21.80;;;16.60;88.30;;;;;;4981409;28;20529;-73
2022/09/11 03:16:13;;;;;;;18.10;17.33;;;16.70;88.20;;;;;;4985523;28;20467;-72
2022/09/11 03:18:40;;;;;;;17.40;16.20;;;16.70;88.20;;;;;;4987903;28;20488;-72
2022/09/11 03:21:10;;;;;;;17.33;16.63;;;16.80;88.10;;;;;;4992920;28;20464;-72
2022/09/11 03:23:37;;;;;;;17.77;16.87;;;16.70;88.20;;;;;;4980102;28;20479;-73
2022/09/11 03:26:03;;;;;;;18.70;18.00;;;16.70;88.30;;;;;;4993266;28;20797;-72
2022/09/11 03:28:30;;;;;;;17.87;16.97;;;16.70;88.20;;;;;;4987343;28;20454;-76
2022/09/11 03:30:58;;;;;;;17.80;17.00;;;16.70;88.30;;;;;;4988966;28;20561;-73
2022/09/11 03:33:25;;;;;;;17.20;16.50;;;16.60;88.60;;;;;;4991230;28;20484;-73
2022/09/11 03:35:52;;;;;;;17.70;16.90;;;16.60;88.70;;;;;;4992352;28;20519;-72
2022/09/11 03:38:20;;;;;;;19.30;18.30;;;16.60;88.80;;;;;;4983885;28;20450;-72
2022/09/11 03:40:47;;;;;;;19.07;18.17;;;16.60;89.00;;;;;;4988454;28;20528;-72
2022/09/11 03:43:15;;;;;;;17.70;16.70;;;16.50;89.20;;;;;;4984953;28;20473;-72
2022/09/11 03:45:43;;;;;;;17.13;16.33;;;16.50;89.40;;;;;;4991146;28;20461;-73
2022/09/11 03:48:10;;;;;;;17.00;16.23;;;16.50;89.60;;;;;;4987600;28;20504;-73
2022/09/11 03:50:37;;;;;;;17.20;16.40;;;16.50;89.70;;;;;;4985410;28;20464;-73
2022/09/11 03:53:04;;;;;;;22.53;21.53;;;16.40;89.90;;;;;;4986587;28;21055;-75
2022/09/11 03:55:32;;;;;;;16.47;15.70;;;16.50;89.70;;;;;;5001419;28;20464;-72
2022/09/11 03:57:59;;;;;;;16.47;15.67;;;16.50;89.70;;;;;;4991728;28;20463;-72
2022/09/11 04:00:26;;;;;;;16.83;16.03;;;16.50;89.60;;;;;;4987508;28;20491;-73
2022/09/11 04:02:54;;;;;;;17.23;16.33;;;16.50;89.50;;;;;;4993934;28;21018;-73
2022/09/11 04:05:21;;;;;;;23.00;21.90;;;16.50;89.60;;;;;;4991161;28;20477;-73
2022/09/11 04:07:48;;;;;;;16.77;15.97;;;16.50;89.60;;;;;;4992230;28;20457;-76
2022/09/11 04:10:15;;;;;;;20.70;19.67;;;16.50;89.50;;;;;;4983649;28;20549;-72
2022/09/11 04:12:44;;;;;;;17.50;16.60;;;16.50;89.60;;;;;;5001354;28;20481;-72
2022/09/11 04:15:11;;;;;;;17.03;16.23;;;16.50;89.50;;;;;;4991193;28;20474;-71
2022/09/11 04:17:38;;;;;;;17.03;16.13;;;16.50;89.30;;;;;;4991450;28;20536;-71
2022/09/11 04:20:05;;;;;;;17.70;16.80;;;16.60;89.30;;;;;;4989207;28;20477;-70
2022/09/11 04:22:32;;;;;;;17.30;16.33;;;16.60;89.00;;;;;;4994801;28;20485;-70
2022/09/11 04:25:00;;;;;;;20.17;19.27;;;16.50;89.20;;;;;;4995933;28;20461;-71
2022/09/11 04:27:28;;;;;;;20.00;19.10;;;16.60;89.20;;;;;;4991781;28;20464;-71
2022/09/11 04:29:56;;;;;;;16.73;16.00;;;16.50;89.30;;;;;;4987837;28;20457;-71
2022/09/11 04:32:23;;;;;;;29.73;28.43;;;16.50;89.70;;;;;;4998482;28;20572;-71
2022/09/11 04:34:49;;;;;;;19.03;17.97;;;16.40;90.10;;;;;;4991473;28;20464;-71
2022/09/11 04:37:18;;;;;;;18.43;17.33;;;16.50;89.80;;;;;;4987041;28;20490;-71
2022/09/11 04:39:46;;;;;;;19.07;18.17;;;16.40;90.00;;;;;;4981536;28;22864;-71
2022/09/11 04:42:12;;;;;;;21.40;20.40;;;16.50;89.80;;;;;;4989601;28;20485;-70
2022/09/11 04:44:39;;;;;;;21.17;20.07;;;16.50;89.80;;;;;;4991865;28;20469;-71
2022/09/11 04:47:07;;;;;;;21.70;20.60;;;16.50;89.70;;;;;;4990871;28;21195;-70
2022/09/11 04:49:34;;;;;;;18.70;17.80;;;16.50;89.60;;;;;;4991489;28;20464;-70
2022/09/11 04:52:04;;;;;;;21.00;20.00;;;16.60;89.40;;;;;;4990804;28;20491;-70
2022/09/11 04:54:33;;;;;;;19.20;18.20;;;16.60;89.40;;;;;;4992987;28;20468;-70
2022/09/11 04:57:00;;;;;;;18.67;17.77;;;16.60;89.30;;;;;;4991202;28;20462;-71
2022/09/11 04:59:27;;;;;;;18.37;17.47;;;16.60;89.20;;;;;;4991360;28;20916;-71
2022/09/11 05:01:54;;;;;;;18.73;17.83;;;16.70;89.20;;;;;;4991506;28;20474;-71
2022/09/11 05:04:22;;;;;;;19.50;18.60;;;16.70;88.90;;;;;;4986556;28;20472;-70
2022/09/11 05:06:49;;;;;;;18.90;18.00;;;16.80;88.50;;;;;;4993943;28;20466;-71
2022/09/11 05:09:17;;;;;;;18.80;17.90;;;16.80;88.50;;;;;;4988359;28;20460;-71
2022/09/11 05:11:44;;;;;;;22.00;20.70;;;16.80;88.50;;;;;;4994401;28;20863;-71
2022/09/11 05:14:11;;;;;;;23.90;22.80;;;16.80;88.30;;;;;;4989092;28;20461;-71
2022/09/11 05:16:38;;;;;;;19.13;18.20;;;16.90;88.10;;;;;;4992194;28;20467;-71
2022/09/11 05:19:06;;;;;;;19.30;18.40;;;16.90;87.80;;;;;;4989774;28;20839;-71
2022/09/11 05:21:34;;;;;;;21.40;20.30;;;16.90;87.90;;;;;;4992399;28;20484;-71
2022/09/11 05:24:02;;;;;;;19.17;18.17;;;16.90;88.00;;;;;;4982351;28;20465;-71
2022/09/11 05:26:31;;;;;;;27.70;26.40;;;16.90;87.80;;;;;;4991842;28;20472;-71
2022/09/11 05:29:00;;;;;;;19.27;18.37;;;17.00;87.70;;;;;;4985187;28;20476;-71
2022/09/11 05:31:28;;;;;;;20.07;19.10;;;17.00;87.60;;;;;;4991796;28;20461;-71
2022/09/11 05:33:56;;;;;;;19.97;18.93;;;17.00;87.50;;;;;;4985671;28;20459;-71
2022/09/11 05:36:23;;;;;;;22.43;21.23;;;17.00;87.40;;;;;;4990803;28;20454;-71
2022/09/11 05:38:52;;;;;;;22.43;21.20;;;17.00;87.40;;;;;;4987135;28;20462;-71
2022/09/11 05:41:19;;;;;;;25.90;24.60;;;17.00;87.50;;;;;;4990525;28;20470;-71
2022/09/11 05:43:46;;;;;;;20.53;19.50;;;17.00;87.40;;;;;;4990287;28;20996;-71
2022/09/11 05:46:15;;;;;;;22.10;20.87;;;17.20;87.20;;;;;;4991285;28;20557;-71
2022/09/11 05:48:42;;;;;;;28.00;26.70;;;17.20;86.80;;;;;;4986386;28;20469;-71
2022/09/11 05:51:12;;;;;;;20.80;19.90;;;17.20;86.90;;;;;;4990036;28;20462;-70
2022/09/11 05:53:39;;;;;;;21.83;20.73;;;17.20;86.70;;;;;;4991066;28;20832;-70
2022/09/11 05:56:09;;;;;;;25.57;24.07;;;17.20;86.90;;;;;;4989928;28;21034;-71
2022/09/11 05:58:36;;;;;;;24.53;23.13;;;17.20;86.80;;;;;;4980380;28;20949;-71
2022/09/11 06:01:06;;;;;;;23.20;22.00;;;17.30;86.50;;;;;;4990301;28;20489;-70
2022/09/11 06:03:33;;;;;;;21.93;20.50;;;17.40;86.00;;;;;;4986539;28;20565;-70
2022/09/11 06:06:01;;;;;;;21.30;20.20;;;17.40;86.10;;;;;;4982685;28;20813;-72
2022/09/11 06:08:28;;;;;;;21.37;20.27;;;17.40;86.00;;;;;;4990497;28;20446;-70
2022/09/11 06:10:57;;;;;;;22.00;20.90;;;17.40;86.00;;;;;;4990919;28;20460;-71
2022/09/11 06:13:25;;;;;;;28.77;27.30;;;17.50;85.90;;;;;;4987741;28;20583;-71
2022/09/11 06:15:52;;;;;;;24.90;23.47;;;17.50;85.40;;;;;;4991030;28;20485;-71
2022/09/11 06:18:19;;;;;;;23.50;22.40;;;17.60;85.30;;;;;;4989764;28;20462;-70
2022/09/11 06:20:56;;;;;;;24.67;23.47;;;17.60;85.20;;;;;;4989538;28;20504;-71
2022/09/11 06:23:23;;;;;;;25.70;24.40;;;17.60;85.40;;;;;;4987622;28;20473;-70
2022/09/11 06:25:53;;;;;;;33.60;31.90;;;17.70;85.20;;;;;;4996779;28;20465;-71
2022/09/11 06:28:21;;;;;;;24.40;23.10;;;17.70;84.90;;;;;;4987805;28;20541;-70
2022/09/11 06:30:50;;;;;;;23.97;22.73;;;17.80;84.60;;;;;;4989759;28;20470;-71
2022/09/11 06:33:19;;;;;;;25.93;24.70;;;17.80;84.40;;;;;;4986261;28;20470;-70
2022/09/11 06:35:55;;;;;;;26.30;25.10;;;17.70;84.80;;;;;;4976082;28;20475;-71
2022/09/11 06:38:22;;;;;;;36.83;34.97;;;17.80;84.60;;;;;;4988156;28;20460;-70
2022/09/11 06:40:50;;;;;;;30.87;29.27;;;17.80;84.30;;;;;;4991423;28;20482;-70
2022/09/11 06:43:17;;;;;;;25.27;23.67;;;17.80;84.60;;;;;;4990673;28;20477;-71
2022/09/11 06:45:44;;;;;;;24.97;23.87;;;17.90;84.30;;;;;;4998144;28;20967;-71
2022/09/11 06:48:13;;;;;;;26.37;25.07;;;17.90;84.10;;;;;;4988112;28;20464;-73
2022/09/11 06:50:40;;;;;;;27.20;25.80;;;18.00;84.10;;;;;;4990352;28;20466;-74
2022/09/11 06:53:07;;;;;;;30.87;29.33;;;18.00;84.10;;;;;;4990100;28;21219;-72
2022/09/11 06:55:34;;;;;;;27.90;26.40;;;18.10;83.60;;;;;;4987283;28;20463;-74
2022/09/11 06:58:02;;;;;;;26.80;25.50;;;18.10;83.10;;;;;;4984756;28;20473;-74
2022/09/11 07:00:29;;;;;;;27.47;25.97;;;18.20;83.00;;;;;;4989236;28;20540;-74
2022/09/11 07:02:56;;;;;;;26.13;24.43;;;18.30;82.70;;;;;;4992419;28;20482;-75
2022/09/11 07:05:25;;;;;;;25.37;24.00;;;18.30;82.70;;;;;;4990022;28;20837;-73
2022/09/11 07:07:54;;;;;;;25.80;24.50;;;18.30;82.60;;;;;;4990802;28;20473;-72
2022/09/11 07:10:21;;;;;;;25.23;23.83;;;18.40;82.60;;;;;;4986584;28;20891;-71
2022/09/11 07:12:48;;;;;;;24.60;23.40;;;18.50;82.10;;;;;;4993436;28;20492;-73
2022/09/11 07:15:15;;;;;;;25.43;24.20;;;18.40;82.00;;;;;;4992468;28;20458;-70
2022/09/11 07:17:42;;;;;;;23.67;22.20;;;18.40;82.30;;;;;;4987025;28;20465;-71
2022/09/11 07:20:10;;;;;;;27.13;25.30;;;18.50;82.10;;;;;;4988961;28;20504;-73
2022/09/11 07:22:39;;;;;;;24.87;23.67;;;18.50;81.80;;;;;;4990501;28;20478;-75
2022/09/11 07:25:06;;;;;;;35.20;33.40;;;18.60;81.50;;;;;;4992974;28;20464;-75
2022/09/11 07:27:33;;;;;;;26.07;24.83;;;18.80;81.40;;;;;;4989038;28;21047;-74
2022/09/11 07:30:00;;;;;;;32.10;30.40;;;18.90;81.10;;;;;;4988285;28;20458;-72
2022/09/11 07:32:28;;;;;;;32.03;30.27;;;18.90;80.70;;;;;;4992202;28;20485;-72
2022/09/11 07:34:55;;;;;;;27.40;26.10;;;19.10;80.60;;;;;;4988319;28;20535;-73
2022/09/11 07:37:22;;;;;;;29.17;27.70;;;19.20;80.00;;;;;;4993034;28;20464;-74
2022/09/11 07:39:50;;;;;;;27.57;26.27;;;19.30;79.20;;;;;;4987132;28;20478;-73
2022/09/11 07:42:17;;;;;;;34.20;32.43;;;19.30;79.10;;;;;;4989717;28;21015;-76
2022/09/11 07:44:45;;;;;;;30.00;28.20;;;19.40;79.30;;;;;;4991825;28;21078;-75
2022/09/11 07:47:11;;;;;;;30.50;29.00;;;19.40;78.90;;;;;;4983950;28;20469;-74
2022/09/11 07:49:38;;;;;;;33.00;31.20;;;19.40;78.60;;;;;;4984968;28;20458;-73
2022/09/11 07:52:05;;;;;;;27.83;26.53;;;19.50;78.80;;;;;;4987101;28;20518;-70
2022/09/11 07:54:32;;;;;;;30.30;28.50;;;19.70;78.60;;;;;;4992236;28;20497;-75
2022/09/11 07:57:01;;;;;;;28.80;27.37;;;19.70;77.50;;;;;;4981333;28;20463;-70
2022/09/11 07:59:28;;;;;;;29.33;27.93;;;19.60;77.50;;;;;;4985955;28;20524;-71
2022/09/11 08:01:55;;;;;;;36.23;34.33;;;19.50;77.60;;;;;;4979349;28;20490;-72
2022/09/11 08:04:22;;;;;;;29.80;28.33;;;19.50;78.20;;;;;;4981528;28;20461;-72
2022/09/11 08:06:49;;;;;;;28.93;27.43;;;19.60;78.00;;;;;;4990396;28;20463;-72
2022/09/11 08:09:17;;;;;;;31.23;29.63;;;19.60;77.60;;;;;;4986993;28;20462;-72
2022/09/11 08:11:47;;;;;;;29.67;28.17;;;19.50;77.70;;;;;;4990724;28;20502;-73
2022/09/11 08:14:16;;;;;;;29.77;28.37;;;19.30;78.40;;;;;;4988667;28;20547;-73
2022/09/11 08:16:44;;;;;;;35.73;33.87;;;19.20;78.10;;;;;;4988050;28;20463;-70
2022/09/11 08:19:16;;;;;;;31.57;29.80;;;19.20;78.40;;;;;;4988691;28;20466;-71
2022/09/11 08:21:44;;;;;;;36.13;34.33;;;19.10;78.70;;;;;;4988348;28;20544;-70
2022/09/11 08:24:12;;;;;;;28.60;27.10;;;19.10;78.80;;;;;;4983981;28;20471;-68
2022/09/11 08:26:39;;;;;;;31.87;30.17;;;19.10;78.90;;;;;;4985204;28;20469;-71
2022/09/11 08:29:07;;;;;;;31.73;30.13;;;19.30;78.10;;;;;;4983304;28;20451;-71
2022/09/11 08:31:36;;;;;;;35.50;33.60;;;19.60;77.40;;;;;;4982504;28;20462;-73
2022/09/11 08:34:03;;;;;;;33.20;31.27;;;19.80;75.90;;;;;;4982121;28;20495;-68
2022/09/11 08:36:30;;;;;;;50.57;48.10;;;19.80;75.80;;;;;;4988612;28;21156;-70
2022/09/11 08:39:01;;;;;;;30.80;29.20;;;19.50;76.30;;;;;;4985315;28;20466;-73
2022/09/11 08:41:34;;;;;;;31.00;29.50;;;19.30;77.60;;;;;;4989321;28;20517;-73
2022/09/11 08:44:05;;;;;;;31.10;29.43;;;19.60;77.20;;;;;;4984924;28;20467;-69
2022/09/11 08:46:43;;;;;;;37.10;35.20;;;19.80;75.80;;;;;;4984944;28;20477;-73
2022/09/11 08:49:17;;;;;;;34.87;33.00;;;19.30;76.00;;;;;;4991586;28;20561;-71
2022/09/11 08:51:46;;;;;;;34.53;32.50;;;19.10;76.30;;;;;;4987178;28;20560;-72
2022/09/11 08:54:26;;;;;;;34.67;32.80;;;18.80;77.70;;;;;;4997809;28;20523;-71
2022/09/11 08:56:54;;;;;;;36.80;34.93;;;18.70;78.20;;;;;;4987469;28;20490;-71
2022/09/11 08:59:32;;;;;;;32.57;30.47;;;18.90;78.00;;;;;;4986383;28;20975;-71
2022/09/11 09:02:17;;;;;;;31.03;29.43;;;19.00;77.90;;;;;;4991104;28;20484;-71
2022/09/11 09:05:04;;;;;;;39.27;36.80;;;19.00;78.10;;;;;;4997598;28;20466;-71
2022/09/11 09:07:38;;;;;;;32.30;30.60;;;19.10;77.60;;;;;;4986631;28;20450;-71
2022/09/11 09:10:16;;;;;;;31.57;29.73;;;19.20;77.40;;;;;;4987010;28;20456;-72
2022/09/11 09:12:53;;;;;;;34.87;33.10;;;19.40;76.60;;;;;;4989343;28;20478;-71
2022/09/11 09:15:41;;;;;;;32.30;30.40;;;19.70;74.80;;;;;;4992839;28;20460;-71
2022/09/11 09:18:13;;;;;;;33.80;32.10;;;19.80;74.00;;;;;;4992789;28;21000;-72
2022/09/11 09:20:45;;;;;;;40.47;38.37;;;19.90;73.80;;;;;;4985200;28;20752;-72
2022/09/11 09:23:18;;;;;;;42.70;40.50;;;20.20;73.00;;;;;;4995044;28;21041;-72
2022/09/11 09:25:47;;;;;;;38.33;36.33;;;20.40;71.30;;;;;;4987886;28;20464;-71
2022/09/11 09:28:19;;;;;;;33.40;31.70;;;20.40;70.20;;;;;;4985861;28;20924;-73
2022/09/11 09:30:50;;;;;;;39.37;37.30;;;20.70;69.00;;;;;;4989976;28;20444;-74
2022/09/11 09:33:30;;;;;;;32.70;31.10;;;21.10;68.80;;;;;;4986130;28;20824;-74
2022/09/11 09:35:59;;;;;;;31.90;30.20;;;21.00;69.10;;;;;;4987152;28;21023;-70
2022/09/11 09:38:30;;;;;;;34.50;32.90;;;20.90;68.00;;;;;;4986590;28;20503;-71
2022/09/11 09:41:13;;;;;;;41.47;39.47;;;20.40;68.40;;;;;;4987746;28;20499;-72
2022/09/11 09:43:48;;;;;;;34.43;32.70;;;20.00;69.70;;;;;;4987377;28;20487;-70
2022/09/11 09:46:26;;;;;;;42.90;40.87;;;20.00;70.60;;;;;;4992453;28;20459;-71
2022/09/11 09:48:54;;;;;;;45.80;43.40;;;20.00;70.90;;;;;;4984748;28;20462;-75
2022/09/11 09:51:21;;;;;;;35.60;33.93;;;19.90;71.20;;;;;;4989869;28;20831;-75
2022/09/11 09:53:52;;;;;;;33.03;31.20;;;19.80;72.20;;;;;;4987516;28;20464;-71
2022/09/11 09:56:22;;;;;;;35.00;33.20;;;19.80;72.80;;;;;;4991731;28;20459;-72
2022/09/11 09:58:55;;;;;;;37.93;35.73;;;19.90;72.80;;;;;;4989042;28;20459;-71
2022/09/11 10:01:45;;;;;;;35.83;33.97;;;19.90;73.20;;;;;;4985923;28;20587;-76
2022/09/11 10:04:17;;;;;;;35.00;33.37;;;20.20;72.10;;;;;;4979990;28;20457;-72
2022/09/11 10:06:46;;;;;;;34.73;32.73;;;20.10;71.30;;;;;;4990063;28;20463;-72
2022/09/11 10:09:28;;;;;;;36.10;34.03;;;20.30;70.80;;;;;;4988996;28;20460;-71
2022/09/11 10:12:01;;;;;;;31.63;30.03;;;20.70;69.40;;;;;;4988000;28;20485;-71
2022/09/11 10:14:33;;;;;;;34.70;32.90;;;20.80;68.70;;;;;;4989827;28;20473;-71
2022/09/11 10:17:01;;;;;;;34.73;33.03;;;20.90;68.00;;;;;;4984874;28;20942;-73
2022/09/11 10:19:41;;;;;;;35.83;34.10;;;20.90;67.60;;;;;;4988095;28;20461;-75
2022/09/11 10:22:29;;;;;;;38.77;36.73;;;20.70;68.70;;;;;;4989089;28;20864;-74
2022/09/11 10:25:11;;;;;;;37.77;35.90;;;20.90;68.80;;;;;;4989477;28;20462;-72
2022/09/11 10:27:45;;;;;;;35.57;33.63;;;21.00;69.20;;;;;;4983254;28;20481;-71
2022/09/11 10:30:28;;;;;;;31.67;29.97;;;21.10;69.20;;;;;;4985420;28;20465;-69
2022/09/11 10:32:57;;;;;;;35.43;33.63;;;21.30;69.20;;;;;;4984733;28;20569;-69
2022/09/11 10:35:27;;;;;;;39.70;37.60;;;21.40;68.80;;;;;;4978282;28;20982;-69
2022/09/11 10:38:12;;;;;;;35.17;33.30;;;21.30;69.00;;;;;;4991820;28;20897;-69
2022/09/11 10:40:40;;;;;;;32.50;30.60;;;21.30;69.00;;;;;;4980234;28;20466;-69
2022/09/11 10:43:23;;;;;;;36.17;34.17;;;21.10;69.50;;;;;;4978614;28;20595;-69
2022/09/11 10:46:02;;;;;;;37.97;36.07;;;21.10;69.00;;;;;;4978115;28;20587;-69
2022/09/11 10:48:29;;;;;;;35.50;33.50;;;21.10;67.20;;;;;;4984895;28;20961;-69
2022/09/11 10:51:04;;;;;;;48.73;46.13;;;21.30;66.70;;;;;;4978319;28;21130;-69
2022/09/11 10:53:37;;;;;;;39.20;37.20;;;21.30;67.20;;;;;;4987652;28;20477;-69
2022/09/11 10:56:05;;;;;;;44.40;42.13;;;21.30;66.90;;;;;;4986284;28;20466;-69
2022/09/11 10:58:37;;;;;;;34.83;33.13;;;21.70;67.60;;;;;;4985979;28;20941;-69
2022/09/11 11:01:04;;;;;;;47.80;45.33;;;22.10;67.00;;;;;;4987570;28;20483;-69
2022/09/11 11:03:31;;;;;;;38.37;36.47;;;22.30;66.30;;;;;;4986875;28;20484;-69
2022/09/11 11:06:09;;;;;;;34.97;33.07;;;22.50;65.30;;;;;;4988163;28;20944;-69
2022/09/11 11:09:05;;;;;;;31.03;29.53;;;22.60;65.10;;;;;;4984652;28;20461;-72
2022/09/11 11:11:49;;;;;;;34.53;32.73;;;22.60;63.70;;;;;;4992308;28;20950;-72
2022/09/11 11:14:52;;;;;;;41.17;39.03;;;22.90;63.40;;;;;;4986829;28;20580;-71
2022/09/11 11:17:30;;;;;;;39.73;37.63;;;22.70;61.40;;;;;;4981120;28;20453;-74
2022/09/11 11:20:14;;;;;;;34.00;32.43;;;22.50;62.70;;;;;;4978299;28;20950;-72
2022/09/11 11:22:59;;;;;;;37.00;35.10;;;22.50;63.10;;;;;;4987007;28;20497;-71
2022/09/11 11:25:34;;;;;;;49.97;47.33;;;22.30;63.60;;;;;;4972892;28;20467;-72
2022/09/11 11:28:15;;;;;;;35.13;33.40;;;21.80;65.50;;;;;;4979376;28;20466;-72
2022/09/11 11:30:55;;;;;;;45.30;42.70;;;21.20;67.90;;;;;;4993411;28;20496;-72
2022/09/11 11:33:41;;;;;;;40.60;38.50;;;21.10;68.70;;;;;;4985172;28;20491;-73
2022/09/11 11:36:14;;;;;;;38.90;36.80;;;21.10;69.10;;;;;;4988541;28;20520;-72
2022/09/11 11:38:47;;;;;;;34.70;33.00;;;21.20;69.40;;;;;;4979591;28;20463;-71
2022/09/11 11:41:18;;;;;;;38.13;36.13;;;21.30;68.80;;;;;;4983009;28;20484;-71
2022/09/11 11:43:48;;;;;;;42.60;40.33;;;21.30;69.10;;;;;;4984472;28;20486;-72
2022/09/11 11:46:19;;;;;;;35.13;33.43;;;21.20;66.80;;;;;;4986711;28;20465;-72
2022/09/11 11:48:53;;;;;;;38.30;36.37;;;21.40;66.90;;;;;;4991652;28;20458;-71
2022/09/11 11:51:24;;;;;;;35.60;33.73;;;21.70;65.80;;;;;;4991005;28;20457;-71
2022/09/11 11:53:59;;;;;;;33.57;31.87;;;22.10;65.20;;;;;;4991379;28;20462;-71
2022/09/11 11:56:34;;;;;;;40.57;38.47;;;22.30;63.40;;;;;;4987687;28;20492;-73
2022/09/11 11:59:10;;;;;;;46.23;43.93;;;22.40;63.60;;;;;;4982155;28;20458;-71
2022/09/11 12:01:41;;;;;;;34.73;32.80;;;22.40;63.50;;;;;;4988095;28;20539;-71
2022/09/11 12:04:17;;;;;;;44.07;41.70;;;22.40;63.70;;;;;;4983286;28;20480;-75
2022/09/11 12:06:45;;;;;;;37.30;35.47;;;22.30;63.70;;;;;;4985481;28;20541;-72
2022/09/11 12:09:17;;;;;;;34.00;32.30;;;22.30;63.50;;;;;;4982379;28;20581;-69
2022/09/11 12:11:47;;;;;;;44.73;42.53;;;22.40;63.20;;;;;;4988535;28;20482;-68
2022/09/11 12:14:32;;;;;;;47.60;45.20;;;22.70;61.80;;;;;;4986149;28;20462;-69
2022/09/11 12:17:18;;;;;;;36.07;34.27;;;23.20;60.40;;;;;;4984162;28;20464;-70
2022/09/11 12:20:29;;;;;;;33.13;31.33;;;23.30;60.20;;;;;;4985774;28;20462;-69
2022/09/11 12:22:57;;;;;;;65.90;62.87;;;23.50;59.80;;;;;;4983536;28;20484;-72
2022/09/11 12:26:05;;;;;;;35.40;33.70;;;23.70;57.70;;;;;;4985751;28;20495;-70
2022/09/11 12:28:34;;;;;;;35.17;33.37;;;23.80;57.10;;;;;;4984682;28;20473;-71
2022/09/11 12:31:06;;;;;;;47.00;44.70;;;23.80;58.00;;;;;;4987540;28;20457;-71
2022/09/11 12:33:59;;;;;;;40.53;38.53;;;24.00;57.50;;;;;;4980089;28;20568;-70
2022/09/11 12:36:49;;;;;;;47.97;45.47;;;24.30;57.80;;;;;;4991717;28;20457;-72
2022/09/11 12:39:26;;;;;;;37.37;35.47;;;24.60;58.00;;;;;;4983665;28;20457;-76
2022/09/11 12:42:33;;;;;;;38.43;36.50;;;24.20;58.20;;;;;;4992032;28;21038;-71
2022/09/11 12:45:00;;;;;;;42.50;40.20;;;23.20;61.00;;;;;;4990665;28;20473;-71
2022/09/11 12:47:30;;;;;;;38.97;36.30;;;22.90;63.10;;;;;;4988052;28;20463;-71
2022/09/11 12:50:15;;;;;;;36.37;34.47;;;22.70;64.00;;;;;;4990630;28;20469;-72